Time;durP1;ratioP1;P1;durP2;ratioP2;P2;SDS_P1;SDS_P2;PMS_P1;PMS_P2;Temp;Humidity;BMP_temperature;BMP_pressure;BME280_temperature;BME280_humidity;BME280_pressure;Samples;Min_cycle;Max_cycle;Signal;HPM_P1;HPM_P2
2022/03/20 00:00:37;;;;;;;15.23;10.40;;;8.00;78.80;;;;;;5087009;28;20202;-83
2022/03/20 00:03:09;;;;;;;13.77;10.43;;;8.10;78.30;;;;;;5087783;28;20303;-84
2022/03/20 00:05:39;;;;;;;13.03;9.57;;;8.00;78.30;;;;;;5088061;28;20218;-78
2022/03/20 00:08:09;;;;;;;14.03;10.20;;;8.00;78.70;;;;;;5088728;28;20588;-84
2022/03/20 00:10:36;;;;;;;17.50;10.83;;;8.00;78.80;;;;;;5085446;28;20222;-82
2022/03/20 00:13:05;;;;;;;14.20;10.73;;;8.00;78.20;;;;;;5087700;28;20213;-81
2022/03/20 00:15:32;;;;;;;14.90;10.00;;;8.00;78.20;;;;;;5087806;28;20198;-80
2022/03/20 00:17:58;;;;;;;12.90;10.40;;;8.00;78.30;;;;;;5088008;28;20210;-79
2022/03/20 00:20:25;;;;;;;14.10;10.33;;;8.00;78.50;;;;;;5087782;28;20248;-80
2022/03/20 00:22:56;;;;;;;15.80;10.80;;;7.90;79.60;;;;;;5077542;28;20234;-80
2022/03/20 00:25:23;;;;;;;14.73;10.33;;;7.90;78.80;;;;;;5067594;28;20239;-81
2022/03/20 00:27:49;;;;;;;12.80;10.20;;;7.90;79.60;;;;;;5068208;28;20294;-81
2022/03/20 00:30:16;;;;;;;14.93;10.33;;;7.80;79.20;;;;;;5067660;28;20253;-80
2022/03/20 00:32:43;;;;;;;16.23;10.37;;;7.90;78.50;;;;;;5084154;28;20210;-80
2022/03/20 00:35:10;;;;;;;13.53;10.97;;;7.90;79.10;;;;;;5087817;28;20294;-80
2022/03/20 00:37:37;;;;;;;13.87;10.50;;;7.80;78.80;;;;;;5085118;28;20209;-80
2022/03/20 00:40:07;;;;;;;12.70;9.60;;;7.70;78.80;;;;;;5081299;28;20731;-80
2022/03/20 00:42:34;;;;;;;14.47;10.63;;;7.70;79.00;;;;;;5088012;28;20293;-80
2022/03/20 00:45:01;;;;;;;12.93;10.50;;;7.60;78.60;;;;;;5087586;28;20210;-81
2022/03/20 00:47:27;;;;;;;12.37;9.23;;;7.70;78.40;;;;;;5088159;28;20291;-80
2022/03/20 00:49:54;;;;;;;14.23;10.13;;;7.70;78.30;;;;;;5087997;28;20210;-80
2022/03/20 00:52:21;;;;;;;13.73;9.97;;;7.80;79.10;;;;;;5086088;28;20266;-80
2022/03/20 00:54:47;;;;;;;16.07;10.47;;;7.70;78.40;;;;;;5088000;28;20221;-80
2022/03/20 00:57:16;;;;;;;15.93;11.00;;;7.70;78.50;;;;;;5087753;28;20207;-86
2022/03/20 00:59:42;;;;;;;14.53;10.77;;;7.60;78.90;;;;;;5087655;28;20203;-80
2022/03/20 01:02:09;;;;;;;18.43;10.70;;;7.60;79.00;;;;;;5088445;28;20206;-82
2022/03/20 01:04:37;;;;;;;14.40;10.10;;;7.60;78.90;;;;;;5091282;28;20237;-83
2022/03/20 01:07:05;;;;;;;12.93;10.17;;;7.60;78.60;;;;;;5091430;28;20195;-78
2022/03/20 01:09:32;;;;;;;16.07;10.83;;;7.50;78.90;;;;;;5091571;28;20210;-78
2022/03/20 01:12:00;;;;;;;13.53;10.17;;;7.60;79.10;;;;;;5091117;28;20211;-78
2022/03/20 01:14:28;;;;;;;16.37;10.40;;;7.50;78.90;;;;;;5091050;28;20672;-78
2022/03/20 01:16:55;;;;;;;12.87;10.13;;;7.60;78.50;;;;;;5091260;28;20272;-78
2022/03/20 01:19:23;;;;;;;12.53;9.87;;;7.60;78.60;;;;;;5091728;28;20584;-88
2022/03/20 01:21:50;;;;;;;17.83;10.67;;;7.60;78.70;;;;;;5093904;28;20604;-90
2022/03/20 01:24:17;;;;;;;17.10;10.47;;;7.50;78.70;;;;;;5092832;28;20865;-89
2022/03/20 01:26:43;;;;;;;17.67;10.87;;;7.50;78.60;;;;;;5077278;28;20212;-89
2022/03/20 01:29:10;;;;;;;14.93;10.93;;;7.40;78.00;;;;;;5072725;28;20946;-90
2022/03/20 01:31:39;;;;;;;14.20;9.67;;;7.40;78.80;;;;;;5073541;28;20199;-89
2022/03/20 01:34:07;;;;;;;14.80;10.20;;;7.40;79.00;;;;;;5078042;28;20232;-89
2022/03/20 01:36:34;;;;;;;13.97;10.40;;;7.40;78.90;;;;;;5090971;28;20729;-80
2022/03/20 01:39:00;;;;;;;12.37;9.83;;;7.40;78.60;;;;;;5090574;28;20805;-81
2022/03/20 01:41:27;;;;;;;12.43;9.93;;;7.40;78.50;;;;;;5079926;28;20269;-79
2022/03/20 01:43:57;;;;;;;13.10;9.63;;;7.40;79.00;;;;;;5070108;28;20267;-79
2022/03/20 01:46:24;;;;;;;12.40;9.73;;;7.40;78.70;;;;;;5070527;28;20204;-79
2022/03/20 01:48:52;;;;;;;12.50;9.73;;;7.40;78.00;;;;;;5070522;28;20203;-81
2022/03/20 01:52:10;;;;;;;14.63;9.87;;;7.30;78.10;;;;;;5070428;28;20212;-82
2022/03/20 01:54:06;;;;;;;17.33;10.13;;;7.20;78.00;;;;;;5084010;28;20246;-82
2022/03/20 01:56:34;;;;;;;13.63;10.03;;;7.20;78.40;;;;;;5090787;28;20206;-82
2022/03/20 01:59:03;;;;;;;12.30;9.70;;;7.20;78.30;;;;;;5070247;28;20218;-82
2022/03/20 02:01:30;;;;;;;15.83;10.23;;;7.20;78.50;;;;;;5070164;28;20293;-82
2022/03/20 02:03:58;;;;;;;15.93;10.10;;;7.20;78.40;;;;;;5070066;28;20662;-79
2022/03/20 02:06:26;;;;;;;14.77;10.47;;;7.20;78.30;;;;;;5070555;28;20203;-80
2022/03/20 02:08:54;;;;;;;13.77;9.47;;;7.20;78.00;;;;;;5082306;28;20671;-84
2022/03/20 02:11:22;;;;;;;14.80;10.07;;;7.20;78.00;;;;;;5091268;28;20260;-85
2022/03/20 02:13:50;;;;;;;14.10;9.70;;;7.20;78.30;;;;;;5085959;28;20273;-81
2022/03/20 02:16:18;;;;;;;13.13;9.60;;;7.20;78.30;;;;;;5069838;28;20195;-81
2022/03/20 02:18:46;;;;;;;13.57;10.10;;;7.20;78.00;;;;;;5069857;28;20204;-80
2022/03/20 02:21:15;;;;;;;14.13;9.80;;;7.10;78.10;;;;;;5084450;28;20234;-84
2022/03/20 02:23:43;;;;;;;16.23;10.23;;;7.10;78.30;;;;;;5073343;28;20773;-85
2022/03/20 02:26:10;;;;;;;15.73;10.13;;;7.10;78.60;;;;;;5071313;28;20207;-86
2022/03/20 02:28:37;;;;;;;14.93;9.50;;;7.10;78.50;;;;;;5071386;28;20593;-86
2022/03/20 02:31:06;;;;;;;13.23;10.40;;;7.10;78.30;;;;;;5081699;28;20207;-85
2022/03/20 02:33:35;;;;;;;14.67;9.20;;;7.00;78.80;;;;;;5091440;28;20583;-86
2022/03/20 02:36:04;;;;;;;19.10;10.20;;;7.00;78.70;;;;;;5091452;28;20723;-86
2022/03/20 02:38:34;;;;;;;13.83;9.73;;;6.90;79.00;;;;;;5073397;28;20203;-85
2022/03/20 02:41:14;;;;;;;14.90;10.47;;;6.90;79.50;;;;;;5070645;28;20727;-86
2022/03/20 02:43:49;;;;;;;14.50;10.00;;;6.90;79.10;;;;;;5071022;28;20222;-86
2022/03/20 02:46:16;;;;;;;14.30;10.13;;;6.80;79.20;;;;;;5071071;28;20202;-86
2022/03/20 02:48:45;;;;;;;16.03;10.83;;;6.80;79.30;;;;;;5071177;28;20207;-86
2022/03/20 02:51:11;;;;;;;13.40;9.90;;;6.80;79.30;;;;;;5070833;28;20204;-86
2022/03/20 02:53:39;;;;;;;13.87;9.83;;;6.80;79.40;;;;;;5077267;28;20221;-86
2022/03/20 02:56:06;;;;;;;13.67;10.17;;;6.80;79.40;;;;;;5090840;28;20207;-86
2022/03/20 02:58:33;;;;;;;12.70;10.03;;;6.80;79.00;;;;;;5089953;28;20906;-86
2022/03/20 03:01:00;;;;;;;18.70;10.43;;;6.80;79.10;;;;;;5074197;28;20219;-88
2022/03/20 03:03:26;;;;;;;13.53;9.73;;;6.70;79.30;;;;;;5070243;28;20669;-80
2022/03/20 03:05:56;;;;;;;14.70;10.17;;;6.70;79.30;;;;;;5088735;28;20256;-86
2022/03/20 03:11:08;;;;;;;14.77;10.27;;;6.70;79.60;;;;;;5090184;28;20202;-83
2022/03/20 03:13:37;;;;;;;14.77;9.17;;;6.60;79.50;;;;;;5089730;28;20207;-84
2022/03/20 03:16:08;;;;;;;12.20;9.17;;;6.60;79.40;;;;;;5089007;28;20715;-80
2022/03/20 03:18:37;;;;;;;13.50;10.37;;;6.70;80.20;;;;;;5089080;28;20279;-80
2022/03/20 03:21:10;;;;;;;14.57;9.97;;;6.70;79.40;;;;;;5088618;28;20280;-80
2022/03/20 03:23:37;;;;;;;15.70;9.97;;;6.60;79.60;;;;;;5088581;28;20284;-80
2022/03/20 03:26:08;;;;;;;13.27;9.60;;;6.60;79.60;;;;;;5088708;28;20207;-80
2022/03/20 03:28:36;;;;;;;12.47;9.63;;;6.60;79.50;;;;;;5068646;28;20231;-81
2022/03/20 03:31:06;;;;;;;13.93;10.20;;;6.60;79.20;;;;;;5068410;28;20207;-81
2022/03/20 03:33:33;;;;;;;13.13;9.90;;;6.60;79.30;;;;;;5076026;28;20191;-80
2022/03/20 03:36:01;;;;;;;13.97;10.03;;;6.60;79.40;;;;;;5088669;28;20207;-82
2022/03/20 03:38:31;;;;;;;13.67;10.00;;;6.50;79.40;;;;;;5088369;28;20696;-80
2022/03/20 03:40:58;;;;;;;15.30;9.30;;;6.50;79.50;;;;;;5088670;28;20624;-80
2022/03/20 03:43:26;;;;;;;15.77;9.80;;;6.50;79.40;;;;;;5088423;28;20742;-80
2022/03/20 03:45:54;;;;;;;16.63;11.03;;;6.50;79.40;;;;;;5088623;28;20203;-82
2022/03/20 03:48:21;;;;;;;14.03;10.00;;;6.60;79.30;;;;;;5090486;28;20207;-86
2022/03/20 03:50:49;;;;;;;14.57;9.80;;;6.50;79.40;;;;;;5075398;28;20208;-82
2022/03/20 03:53:16;;;;;;;13.13;10.07;;;6.50;79.40;;;;;;5068752;28;20207;-83
2022/03/20 03:55:44;;;;;;;13.83;9.13;;;6.40;79.80;;;;;;5072014;28;20241;-79
2022/03/20 03:58:12;;;;;;;16.13;9.97;;;6.40;80.50;;;;;;5088020;28;20266;-79
2022/03/20 04:00:40;;;;;;;14.80;10.30;;;6.40;80.00;;;;;;5088206;28;20195;-82
2022/03/20 04:03:07;;;;;;;13.67;10.20;;;6.40;80.20;;;;;;5088561;28;20256;-82
2022/03/20 04:05:34;;;;;;;14.43;10.07;;;6.40;79.90;;;;;;5088545;28;20572;-81
2022/03/20 04:08:01;;;;;;;16.77;10.60;;;6.30;79.60;;;;;;5088358;28;20681;-82
2022/03/20 04:10:30;;;;;;;13.43;9.63;;;6.30;79.90;;;;;;5088547;28;20243;-82
2022/03/20 04:12:57;;;;;;;14.77;10.10;;;6.30;79.80;;;;;;5088780;28;20245;-83
2022/03/20 04:15:25;;;;;;;14.03;9.87;;;6.30;80.10;;;;;;5088826;28;20202;-82
2022/03/20 04:17:53;;;;;;;13.77;9.70;;;6.30;80.20;;;;;;5071424;28;20282;-81
2022/03/20 04:20:20;;;;;;;13.67;9.73;;;6.30;79.90;;;;;;5068697;28;20203;-81
2022/03/20 04:25:28;;;;;;;14.53;10.03;;;6.30;80.10;;;;;;5067860;28;20273;-81
2022/03/20 04:27:56;;;;;;;13.43;9.27;;;6.30;80.00;;;;;;5068156;28;20211;-82
2022/03/20 04:30:24;;;;;;;16.90;10.13;;;6.30;80.30;;;;;;5067805;28;20299;-82
2022/03/20 04:32:52;;;;;;;13.77;9.60;;;6.10;80.40;;;;;;5067857;28;20688;-82
2022/03/20 04:35:21;;;;;;;13.43;10.13;;;6.10;80.60;;;;;;5068574;28;20207;-81
2022/03/20 04:37:48;;;;;;;13.77;10.00;;;6.10;80.70;;;;;;5069719;28;20301;-81
2022/03/20 04:40:14;;;;;;;14.37;9.97;;;6.10;80.50;;;;;;5087997;28;20536;-81
2022/03/20 04:42:41;;;;;;;15.27;10.00;;;6.10;80.60;;;;;;5092308;28;20252;-81
2022/03/20 04:45:10;;;;;;;16.07;9.93;;;6.10;80.70;;;;;;5091972;28;20226;-80
2022/03/20 04:58:47;;;;;;;18.43;11.10;;;6.00;81.20;;;;;;5070951;28;20565;-75
2022/03/20 05:01:13;;;;;;;15.67;10.20;;;6.00;81.30;;;;;;5071092;28;20207;-75
2022/03/20 05:03:40;;;;;;;15.33;10.10;;;5.90;81.30;;;;;;5071273;28;20211;-75
2022/03/20 05:06:08;;;;;;;15.13;10.27;;;5.90;81.50;;;;;;5071083;28;20292;-75
2022/03/20 05:08:36;;;;;;;13.20;10.00;;;5.90;81.60;;;;;;5070949;28;20939;-75
2022/03/20 05:13:50;;;;;;;17.17;11.20;;;5.80;82.30;;;;;;5090633;28;20209;-76
2022/03/20 05:16:17;;;;;;;14.87;9.40;;;5.80;82.00;;;;;;5091172;28;20264;-76
2022/03/20 05:18:44;;;;;;;14.53;10.00;;;5.80;82.00;;;;;;5089793;28;20232;-78
2022/03/20 05:21:12;;;;;;;16.33;10.53;;;5.70;82.30;;;;;;5070764;28;20958;-77
2022/03/20 05:23:39;;;;;;;13.97;10.10;;;5.70;82.30;;;;;;5087818;28;20307;-78
2022/03/20 05:26:05;;;;;;;17.83;10.57;;;5.70;82.30;;;;;;5090964;28;20740;-77
2022/03/20 05:28:32;;;;;;;15.13;10.80;;;5.70;82.20;;;;;;5090651;28;20223;-79
2022/03/20 05:30:59;;;;;;;16.90;10.40;;;5.60;82.50;;;;;;5091345;28;20226;-80
2022/03/20 05:33:26;;;;;;;16.90;11.20;;;5.60;82.60;;;;;;5090947;28;20710;-80
2022/03/20 05:35:52;;;;;;;14.57;10.43;;;5.50;82.70;;;;;;5090980;28;20210;-79
2022/03/20 05:38:21;;;;;;;14.73;9.97;;;5.60;82.80;;;;;;5091155;28;20207;-79
2022/03/20 05:40:47;;;;;;;16.77;10.93;;;5.60;83.20;;;;;;5070754;28;21069;-80
2022/03/20 05:43:14;;;;;;;16.00;10.60;;;5.60;83.10;;;;;;5083987;28;20207;-78
2022/03/20 05:45:42;;;;;;;16.20;10.90;;;5.60;82.90;;;;;;5090534;28;20304;-79
2022/03/20 05:48:09;;;;;;;15.67;10.00;;;5.60;83.00;;;;;;5087515;28;20214;-80
2022/03/20 05:50:36;;;;;;;18.73;10.73;;;5.60;83.20;;;;;;5069376;28;20943;-80
2022/03/20 05:53:03;;;;;;;14.97;9.77;;;5.60;83.30;;;;;;5074961;28;20230;-78
2022/03/20 05:58:15;;;;;;;15.70;10.23;;;5.50;83.30;;;;;;5090519;28;20189;-79
2022/03/20 06:00:42;;;;;;;15.23;10.90;;;5.50;83.30;;;;;;5090257;28;20608;-83
2022/03/20 06:03:10;;;;;;;19.63;11.77;;;5.50;83.10;;;;;;5091154;28;20207;-81
2022/03/20 06:05:37;;;;;;;18.03;11.07;;;5.50;83.30;;;;;;5090507;28;20293;-80
2022/03/20 06:08:06;;;;;;;14.90;10.93;;;5.50;83.50;;;;;;5090179;28;20205;-80
2022/03/20 06:10:35;;;;;;;14.47;10.53;;;5.50;83.10;;;;;;5090351;28;20203;-81
2022/03/20 06:13:07;;;;;;;14.73;10.00;;;5.60;83.30;;;;;;5089706;28;20233;-81
2022/03/20 06:15:34;;;;;;;19.63;11.00;;;5.60;83.30;;;;;;5089895;28;20215;-81
2022/03/20 06:18:06;;;;;;;17.03;10.20;;;5.50;83.50;;;;;;5090400;28;20645;-81
2022/03/20 06:20:34;;;;;;;14.40;10.67;;;5.50;83.40;;;;;;5082044;28;20574;-81
2022/03/20 06:23:01;;;;;;;14.97;10.03;;;5.50;83.40;;;;;;5081370;28;20203;-81
2022/03/20 06:25:28;;;;;;;16.93;10.80;;;5.50;83.70;;;;;;5089960;28;20556;-81
2022/03/20 06:27:58;;;;;;;15.43;10.67;;;5.50;83.00;;;;;;5089998;28;20226;-81
2022/03/20 06:30:25;;;;;;;14.43;10.87;;;5.50;83.00;;;;;;5090519;28;20202;-82
2022/03/20 06:32:52;;;;;;;17.97;11.03;;;5.50;83.30;;;;;;5090093;28;20294;-78
2022/03/20 06:35:19;;;;;;;16.97;11.13;;;5.50;83.10;;;;;;5089882;28;20202;-78
2022/03/20 06:37:48;;;;;;;13.73;10.03;;;5.50;83.00;;;;;;5089604;28;20553;-79
2022/03/20 06:40:16;;;;;;;15.17;11.17;;;5.50;83.00;;;;;;5089501;28;20298;-79
2022/03/20 06:42:43;;;;;;;17.43;10.90;;;5.50;83.30;;;;;;5089962;28;20252;-81
2022/03/20 06:45:13;;;;;;;17.37;11.33;;;5.60;83.40;;;;;;5089223;28;20226;-81
2022/03/20 06:47:43;;;;;;;17.70;11.40;;;5.60;82.90;;;;;;5089905;28;20965;-81
2022/03/20 06:50:14;;;;;;;16.37;11.30;;;5.60;83.30;;;;;;5077375;28;20272;-83
2022/03/20 06:52:41;;;;;;;15.80;10.77;;;5.60;83.40;;;;;;5069425;28;20290;-82
2022/03/20 06:55:11;;;;;;;17.70;10.97;;;5.60;83.30;;;;;;5069404;28;20215;-74
2022/03/20 06:57:42;;;;;;;16.63;11.07;;;5.60;83.50;;;;;;5069482;28;20204;-74
2022/03/20 07:00:12;;;;;;;16.37;11.03;;;5.60;83.50;;;;;;5068410;28;20246;-74
2022/03/20 07:02:39;;;;;;;16.47;10.83;;;5.60;83.10;;;;;;5071331;28;20241;-83
2022/03/20 07:05:06;;;;;;;20.73;11.63;;;5.70;83.50;;;;;;5089810;28;20270;-82
2022/03/20 07:07:34;;;;;;;15.40;10.93;;;5.70;83.00;;;;;;5089849;28;20225;-83
2022/03/20 07:10:00;;;;;;;12.67;10.37;;;5.80;83.60;;;;;;5090121;28;20210;-83
2022/03/20 07:12:27;;;;;;;15.83;11.13;;;5.80;83.00;;;;;;5077527;28;20207;-79
2022/03/20 07:14:54;;;;;;;17.30;11.50;;;5.80;82.90;;;;;;5068113;28;20616;-79
2022/03/20 07:17:24;;;;;;;17.33;10.43;;;5.90;82.90;;;;;;5068908;28;20611;-79
2022/03/20 07:19:51;;;;;;;16.47;11.53;;;6.00;82.70;;;;;;5083801;28;20210;-81
2022/03/20 07:22:19;;;;;;;18.70;10.67;;;6.00;82.20;;;;;;5068835;28;20208;-81
2022/03/20 07:24:46;;;;;;;16.57;10.97;;;6.10;81.80;;;;;;5068523;28;20267;-81
2022/03/20 07:29:58;;;;;;;15.17;10.53;;;6.20;81.90;;;;;;5068103;28;20237;-81
2022/03/20 07:32:26;;;;;;;14.07;10.83;;;6.30;81.30;;;;;;5068291;28;20619;-79
2022/03/20 07:34:53;;;;;;;17.00;11.37;;;6.30;81.10;;;;;;5074655;28;20211;-82
2022/03/20 07:37:21;;;;;;;15.50;10.67;;;6.40;80.70;;;;;;5089148;28;20230;-83
2022/03/20 07:39:51;;;;;;;15.50;10.73;;;6.40;80.90;;;;;;5088671;28;21008;-82
2022/03/20 07:42:19;;;;;;;15.77;10.87;;;6.50;80.50;;;;;;5088831;28;20285;-83
2022/03/20 07:44:47;;;;;;;16.70;11.07;;;6.60;80.30;;;;;;5088899;28;20634;-83
2022/03/20 07:47:18;;;;;;;17.80;11.10;;;6.70;80.60;;;;;;5088674;28;20210;-83
2022/03/20 07:49:47;;;;;;;16.40;11.53;;;6.80;81.20;;;;;;5089242;28;20245;-83
2022/03/20 07:52:14;;;;;;;18.10;11.57;;;6.80;80.30;;;;;;5085890;28;20207;-83
2022/03/20 07:54:41;;;;;;;16.33;11.27;;;6.90;80.20;;;;;;5068940;28;20210;-79
2022/03/20 07:57:08;;;;;;;20.50;12.43;;;6.90;80.30;;;;;;5068094;28;20200;-79
2022/03/20 07:59:35;;;;;;;17.43;11.50;;;6.90;79.40;;;;;;5076137;28;20206;-82
2022/03/20 08:02:02;;;;;;;16.17;11.03;;;7.00;79.40;;;;;;5088583;28;20294;-80
2022/03/20 08:04:28;;;;;;;16.03;11.00;;;7.00;79.60;;;;;;5088638;28;20203;-81
2022/03/20 08:06:56;;;;;;;17.57;11.60;;;7.10;79.50;;;;;;5088435;28;20235;-81
2022/03/20 08:09:23;;;;;;;15.23;10.63;;;7.10;79.50;;;;;;5070836;28;20212;-81
2022/03/20 08:11:50;;;;;;;15.70;11.03;;;7.20;79.30;;;;;;5068405;28;20878;-80
2022/03/20 08:14:16;;;;;;;15.93;10.30;;;7.20;79.30;;;;;;5075253;28;20199;-80
2022/03/20 08:16:43;;;;;;;14.80;10.13;;;7.30;79.50;;;;;;5092755;28;20221;-80
2022/03/20 08:19:11;;;;;;;15.67;11.43;;;7.40;79.70;;;;;;5092541;28;20211;-80
2022/03/20 08:21:39;;;;;;;16.33;10.87;;;7.50;79.20;;;;;;5092392;28;20621;-81
2022/03/20 08:24:08;;;;;;;17.73;11.37;;;7.60;78.70;;;;;;5071735;28;20235;-81
2022/03/20 08:26:34;;;;;;;18.90;12.13;;;7.60;78.30;;;;;;5071810;28;20720;-80
2022/03/20 08:29:02;;;;;;;17.40;11.50;;;7.60;77.80;;;;;;5071757;28;20230;-81
2022/03/20 08:31:29;;;;;;;15.83;11.23;;;7.70;78.80;;;;;;5081230;28;20203;-77
2022/03/20 08:33:57;;;;;;;18.50;11.20;;;7.80;78.60;;;;;;5091779;28;20702;-77
2022/03/20 08:36:24;;;;;;;17.20;11.33;;;7.80;78.40;;;;;;5092280;28;20211;-79
2022/03/20 08:38:51;;;;;;;17.07;11.30;;;7.90;79.00;;;;;;5091685;28;20202;-80
2022/03/20 08:41:19;;;;;;;18.77;11.60;;;8.00;79.00;;;;;;5092565;28;20221;-79
2022/03/20 08:43:46;;;;;;;14.73;10.93;;;8.10;78.40;;;;;;5091997;28;20256;-81
2022/03/20 08:46:12;;;;;;;19.97;11.90;;;8.20;79.30;;;;;;5092253;28;20227;-80
2022/03/20 08:48:39;;;;;;;16.83;10.83;;;8.20;78.50;;;;;;5091905;28;20925;-80
2022/03/20 08:51:09;;;;;;;16.83;11.40;;;8.30;78.50;;;;;;5092239;28;20690;-79
2022/03/20 08:53:35;;;;;;;17.07;11.20;;;8.40;79.20;;;;;;5075152;28;20204;-76
2022/03/20 08:56:05;;;;;;;17.90;11.37;;;8.50;78.40;;;;;;5080783;28;20647;-78
2022/03/20 08:58:34;;;;;;;14.00;10.53;;;8.50;78.30;;;;;;5091618;28;20199;-79
2022/03/20 09:01:00;;;;;;;16.43;11.77;;;8.60;77.40;;;;;;5091183;28;20206;-79
2022/03/20 09:03:29;;;;;;;16.13;11.97;;;8.70;77.40;;;;;;5081011;28;20238;-79
2022/03/20 09:05:56;;;;;;;15.57;10.67;;;8.70;77.30;;;;;;5088320;28;20292;-80
2022/03/20 09:08:22;;;;;;;19.17;11.50;;;8.80;77.70;;;;;;5090091;28;20260;-80
2022/03/20 09:10:51;;;;;;;14.37;10.83;;;8.80;77.90;;;;;;5089712;28;20199;-80
2022/03/20 09:13:18;;;;;;;16.57;11.30;;;9.00;78.00;;;;;;5090020;28;20601;-80
2022/03/20 09:18:58;;;;;;;15.77;11.67;;;9.10;76.60;;;;;;5089576;28;20949;-80
2022/03/20 09:21:16;;;;;;;14.80;10.77;;;9.20;76.40;;;;;;5067282;28;20341;-80
2022/03/20 09:23:42;;;;;;;17.43;10.93;;;9.30;76.60;;;;;;5085873;28;20779;-81
2022/03/20 09:26:09;;;;;;;15.37;11.10;;;9.40;76.40;;;;;;5089155;28;20724;-81
2022/03/20 09:28:36;;;;;;;19.63;12.07;;;9.50;76.60;;;;;;5090201;28;20235;-80
2022/03/20 09:31:08;;;;;;;15.10;10.83;;;9.50;75.80;;;;;;5089535;28;20203;-79
2022/03/20 09:33:35;;;;;;;17.27;10.67;;;9.60;76.00;;;;;;5091180;28;20195;-79
2022/03/20 09:36:10;;;;;;;13.80;10.63;;;9.70;76.20;;;;;;5089173;28;20665;-76
2022/03/20 09:38:37;;;;;;;15.17;10.57;;;9.90;78.70;;;;;;5089167;28;20232;-75
2022/03/20 09:41:08;;;;;;;15.33;10.47;;;10.00;79.30;;;;;;5089086;28;20697;-81
2022/03/20 09:43:37;;;;;;;13.97;10.17;;;10.00;78.10;;;;;;5093039;28;20207;-82
2022/03/20 09:46:08;;;;;;;14.87;10.93;;;10.20;76.70;;;;;;5090853;28;20230;-81
2022/03/20 09:48:35;;;;;;;13.67;9.87;;;10.20;75.20;;;;;;5091979;28;20213;-81
2022/03/20 09:51:09;;;;;;;18.30;11.20;;;10.30;75.60;;;;;;5093858;28;20210;-82
2022/03/20 09:53:36;;;;;;;14.37;10.40;;;10.30;74.20;;;;;;5076510;28;20203;-80
2022/03/20 09:56:06;;;;;;;15.73;10.77;;;10.40;75.20;;;;;;5091104;28;20712;-80
2022/03/20 09:58:33;;;;;;;13.67;10.40;;;10.50;75.20;;;;;;5090340;28;20207;-80
2022/03/20 10:01:01;;;;;;;15.43;11.10;;;10.50;75.20;;;;;;5080671;28;20219;-81
2022/03/20 10:03:29;;;;;;;15.70;9.60;;;10.60;75.20;;;;;;5073436;28;20670;-80
2022/03/20 10:06:09;;;;;;;15.93;10.37;;;10.70;75.00;;;;;;5072241;28;20635;-80
2022/03/20 10:08:36;;;;;;;17.10;11.00;;;10.90;74.80;;;;;;5073795;28;20195;-80
2022/03/20 10:11:16;;;;;;;13.63;10.57;;;11.00;74.00;;;;;;5073272;28;20203;-80
2022/03/20 10:14:08;;;;;;;12.97;10.00;;;11.10;74.70;;;;;;5073187;28;20279;-81
2022/03/20 10:16:35;;;;;;;14.13;10.10;;;11.10;73.20;;;;;;5071983;28;20233;-81
2022/03/20 10:19:03;;;;;;;14.33;9.80;;;11.20;73.30;;;;;;5079883;28;20234;-80
2022/03/20 10:21:45;;;;;;;14.03;9.80;;;11.30;72.60;;;;;;5088047;28;20207;-81
2022/03/20 10:24:19;;;;;;;12.57;10.07;;;11.30;71.20;;;;;;5078631;28;20275;-82
2022/03/20 10:26:50;;;;;;;12.33;9.83;;;11.40;70.50;;;;;;5087936;28;20287;-81
2022/03/20 10:29:18;;;;;;;13.57;9.57;;;11.40;69.50;;;;;;5086579;28;20226;-81
2022/03/20 10:31:52;;;;;;;13.07;9.23;;;11.40;69.00;;;;;;5068591;28;20215;-81
2022/03/20 10:34:21;;;;;;;12.40;8.87;;;11.40;67.70;;;;;;5075004;28;20203;-81
2022/03/20 10:36:50;;;;;;;13.53;9.57;;;11.50;68.60;;;;;;5088616;28;20207;-80
2022/03/20 10:39:19;;;;;;;12.97;8.80;;;11.60;69.40;;;;;;5081883;28;20215;-80
2022/03/20 10:41:47;;;;;;;13.00;9.67;;;11.70;70.00;;;;;;5071467;28;20214;-78
2022/03/20 10:44:16;;;;;;;11.93;8.30;;;11.80;69.10;;;;;;5067870;28;20215;-78
2022/03/20 10:46:43;;;;;;;16.60;9.60;;;11.90;70.70;;;;;;5067229;28;20254;-78
2022/03/20 10:49:20;;;;;;;13.90;9.43;;;11.90;68.20;;;;;;5082065;28;20211;-79
2022/03/20 10:52:01;;;;;;;15.03;9.47;;;11.90;66.70;;;;;;5085862;28;20252;-80
2022/03/20 10:54:39;;;;;;;12.30;9.07;;;12.00;66.70;;;;;;5067166;28;20203;-80
2022/03/20 10:57:06;;;;;;;10.73;8.20;;;12.00;65.60;;;;;;5075290;28;21055;-79
2022/03/20 10:59:34;;;;;;;13.30;9.67;;;12.10;67.80;;;;;;5087130;28;20207;-79
2022/03/20 11:02:00;;;;;;;11.83;8.43;;;12.20;66.70;;;;;;5086986;28;20206;-80
2022/03/20 11:04:28;;;;;;;9.67;7.83;;;12.30;66.80;;;;;;5072280;28;20207;-80
2022/03/20 11:06:57;;;;;;;10.93;8.60;;;12.50;66.90;;;;;;5066658;28;20263;-78
2022/03/20 11:09:24;;;;;;;10.73;8.37;;;12.60;67.00;;;;;;5067091;28;20207;-80
2022/03/20 11:11:53;;;;;;;11.90;8.70;;;12.60;65.20;;;;;;5066707;28;20207;-80
2022/03/20 11:14:22;;;;;;;15.37;9.50;;;12.70;64.80;;;;;;5066497;28;20247;-79
2022/03/20 11:16:50;;;;;;;9.37;7.97;;;12.70;64.00;;;;;;5066319;28;20204;-80
2022/03/20 11:19:23;;;;;;;8.90;7.17;;;12.70;63.90;;;;;;5068205;28;20252;-80
2022/03/20 11:21:53;;;;;;;9.67;8.23;;;12.70;63.30;;;;;;5083663;28;20213;-79
2022/03/20 11:24:22;;;;;;;10.17;7.93;;;12.80;62.90;;;;;;5074206;28;20242;-80
2022/03/20 11:26:51;;;;;;;10.83;7.80;;;12.80;63.70;;;;;;5076721;28;20712;-79
2022/03/20 11:29:21;;;;;;;10.53;8.17;;;13.00;64.90;;;;;;5071125;28;20223;-80
2022/03/20 11:31:49;;;;;;;11.20;8.77;;;13.10;63.10;;;;;;5075993;28;20219;-80
2022/03/20 11:34:17;;;;;;;12.73;7.87;;;13.10;62.60;;;;;;5079283;28;20210;-80
2022/03/20 11:37:06;;;;;;;11.00;7.47;;;13.30;63.60;;;;;;5076716;28;20680;-79
2022/03/20 11:39:35;;;;;;;14.47;8.40;;;13.40;63.40;;;;;;5073583;28;20210;-79
2022/03/20 11:42:20;;;;;;;10.07;8.07;;;13.50;61.60;;;;;;5073340;28;20257;-79
2022/03/20 11:44:52;;;;;;;9.67;6.70;;;13.50;60.70;;;;;;5072679;28;20941;-79
2022/03/20 11:47:27;;;;;;;8.80;7.40;;;13.60;60.10;;;;;;5073742;28;20215;-79
2022/03/20 11:50:19;;;;;;;8.87;7.00;;;13.60;59.70;;;;;;5069281;28;20555;-80
2022/03/20 11:52:49;;;;;;;10.40;7.37;;;13.70;59.80;;;;;;5083533;28;20218;-79
2022/03/20 11:55:30;;;;;;;7.23;6.33;;;13.80;59.20;;;;;;5077105;28;20207;-79
2022/03/20 11:57:57;;;;;;;11.23;7.37;;;13.80;59.40;;;;;;5065013;28;20276;-79
2022/03/20 12:00:26;;;;;;;10.17;7.73;;;13.90;59.10;;;;;;5071118;28;20211;-79
2022/03/20 12:03:32;;;;;;;8.80;7.10;;;14.10;60.30;;;;;;5076059;28;20446;-79
2022/03/20 12:06:39;;;;;;;10.10;7.83;;;14.20;60.00;;;;;;5065191;28;20207;-79
2022/03/20 12:09:31;;;;;;;10.80;7.80;;;14.40;59.80;;;;;;5064879;28;20195;-79
2022/03/20 12:12:14;;;;;;;9.73;7.63;;;14.50;59.30;;;;;;5065258;28;20198;-79
2022/03/20 12:14:43;;;;;;;9.40;7.27;;;14.60;60.80;;;;;;5065135;28;20192;-78
2022/03/20 12:17:10;;;;;;;10.00;7.80;;;14.70;60.10;;;;;;5076390;28;20201;-78
2022/03/20 12:19:41;;;;;;;10.90;7.07;;;14.80;59.70;;;;;;5077307;28;20207;-78
2022/03/20 12:22:14;;;;;;;9.53;7.80;;;14.90;59.60;;;;;;5076291;28;20206;-78
2022/03/20 12:24:52;;;;;;;9.70;7.97;;;15.00;60.20;;;;;;5078042;28;20231;-78
2022/03/20 12:27:42;;;;;;;10.20;8.27;;;15.00;58.50;;;;;;5079216;28;20269;-78
2022/03/20 12:30:33;;;;;;;8.97;7.17;;;15.00;58.30;;;;;;5070146;28;20203;-78
2022/03/20 12:33:01;;;;;;;11.80;8.27;;;15.00;57.90;;;;;;5071981;28;20196;-79
2022/03/20 12:35:29;;;;;;;10.43;7.97;;;15.10;59.20;;;;;;5070336;28;20211;-78
2022/03/20 12:37:56;;;;;;;9.23;7.87;;;15.30;58.70;;;;;;5073814;28;20214;-78
2022/03/20 12:40:25;;;;;;;10.63;7.77;;;15.40;59.20;;;;;;5076400;28;20207;-79
2022/03/20 12:42:59;;;;;;;10.97;7.60;;;15.60;58.80;;;;;;5081558;28;20202;-79
2022/03/20 12:45:27;;;;;;;8.87;7.80;;;15.60;57.50;;;;;;5075976;28;20276;-78
2022/03/20 12:47:57;;;;;;;10.47;7.53;;;15.60;57.70;;;;;;5064605;28;20231;-78
2022/03/20 12:50:25;;;;;;;11.77;8.47;;;15.60;57.60;;;;;;5065274;28;20212;-78
2022/03/20 12:52:55;;;;;;;10.27;7.77;;;15.80;58.10;;;;;;5075149;28;20264;-78
2022/03/20 12:55:27;;;;;;;10.27;7.67;;;15.80;57.40;;;;;;5083672;28;20192;-78
2022/03/20 12:57:55;;;;;;;12.80;8.17;;;15.90;57.30;;;;;;5064722;28;20654;-78
2022/03/20 13:00:24;;;;;;;11.07;8.17;;;15.80;56.80;;;;;;5068270;28;20926;-78
2022/03/20 13:03:04;;;;;;;10.17;7.83;;;15.70;55.60;;;;;;5068493;28;20290;-77
2022/03/20 13:05:33;;;;;;;11.87;8.20;;;15.80;56.10;;;;;;5068304;28;20199;-77
2022/03/20 13:08:01;;;;;;;8.27;7.07;;;15.90;55.90;;;;;;5067606;28;20276;-76
2022/03/20 13:10:34;;;;;;;8.50;7.10;;;16.00;56.20;;;;;;5067691;28;20207;-78
2022/03/20 13:13:02;;;;;;;9.53;7.07;;;16.00;55.40;;;;;;5080343;28;20249;-77
2022/03/20 13:15:31;;;;;;;8.70;7.57;;;15.90;55.70;;;;;;5080496;28;20848;-77